createdAt,value
2024-05-09T00:03:30.737Z,100782.33
2024-05-09T00:08:32.870Z,100780.31
2024-05-09T00:13:35.775Z,100781.30
2024-05-09T00:18:40.730Z,100788.48
2024-05-09T00:23:43.365Z,100792.34
2024-05-09T00:28:45.278Z,100786.83
2024-05-09T00:33:47.922Z,100785.82
2024-05-09T00:38:50.215Z,100788.77
2024-05-09T00:43:55.740Z,100789.33
2024-05-09T00:49:01.165Z,100789.48
2024-05-09T00:54:04.899Z,100794.33
2024-05-09T00:59:10.700Z,100798.65
2024-05-09T01:04:13.607Z,100795.30
2024-05-09T01:09:15.876Z,100796.18
2024-05-09T01:14:18.533Z,100798.63
2024-05-09T01:19:39.752Z,100798.35
2024-05-09T01:25:16.308Z,100797.91
2024-05-09T01:30:34.313Z,100799.75
2024-05-09T01:35:40.252Z,100795.17
2024-05-09T01:41:05.710Z,100792.06
2024-05-09T01:46:31.208Z,100790.27
2024-05-09T01:51:39.402Z,100794.30
2024-05-09T01:56:52.335Z,100794.75
2024-05-09T02:01:57.958Z,100794.10
2024-05-09T02:07:00.265Z,100792.60
2024-05-09T02:12:03.591Z,100789.86
2024-05-09T02:17:29.011Z,100790.27
2024-05-09T02:22:40.013Z,100790.36
2024-05-09T02:27:44.878Z,100790.81
2024-05-09T02:32:47.482Z,100794.45
2024-05-09T02:37:58.542Z,100787.88
2024-05-09T02:43:20.866Z,100790.16
2024-05-09T02:48:23.521Z,100788.13
2024-05-09T02:53:48.914Z,100786.34
2024-05-09T02:59:02.951Z,100784.33
2024-05-09T03:04:22.787Z,100786.47
2024-05-09T03:09:25.102Z,100783.71
2024-05-09T03:14:28.288Z,100787.11
2024-05-09T03:19:30.426Z,100788.00
2024-05-09T03:24:35.772Z,100793.06
2024-05-09T03:29:39.005Z,100795.70
2024-05-09T03:35:04.000Z,100792.91
2024-05-09T03:40:20.274Z,100789.05
2024-05-09T03:45:49.872Z,100782.19
2024-05-09T03:50:57.410Z,100778.61
2024-05-09T03:56:03.427Z,100779.30
2024-05-09T04:01:06.392Z,100775.76
2024-05-09T04:06:08.511Z,100782.35
2024-05-09T04:11:14.185Z,100789.22
2024-05-09T04:16:20.180Z,100790.09
2024-05-09T04:21:47.593Z,100794.58
2024-05-09T04:26:58.448Z,100794.50
2024-05-09T04:32:20.310Z,100794.97
2024-05-09T04:37:46.084Z,100801.78
2024-05-09T04:42:57.366Z,100804.02
2024-05-09T04:48:11.604Z,100808.35
2024-05-09T04:53:57.252Z,100813.50
2024-05-09T04:59:35.762Z,100812.13
2024-05-09T05:05:08.685Z,100815.77
2024-05-09T05:10:15.048Z,100817.77
2024-05-09T05:15:57.413Z,100819.77
2024-05-09T05:21:24.125Z,100822.80
2024-05-09T05:26:56.270Z,100828.90
2024-05-09T05:32:19.996Z,100835.34
2024-05-09T05:37:28.015Z,100835.16
2024-05-09T05:42:31.467Z,100829.35
2024-05-09T05:47:42.235Z,100821.32
2024-05-09T05:52:50.420Z,100822.48
2024-05-09T05:58:01.529Z,100816.91
2024-05-09T06:03:05.071Z,100817.27
2024-05-09T06:08:08.051Z,100812.83
2024-05-09T06:14:13.191Z,100816.04
2024-05-09T06:20:35.241Z,100815.66
2024-05-09T06:26:36.286Z,100818.42
2024-05-09T06:32:51.583Z,100812.87
2024-05-09T06:37:55.470Z,100810.65
2024-05-09T06:42:58.740Z,100810.45
2024-05-09T06:48:01.162Z,100816.21
2024-05-09T06:53:06.278Z,100811.34
2024-05-09T06:58:08.870Z,100817.44
2024-05-09T07:03:14.711Z,100818.83
2024-05-09T07:08:46.956Z,100814.06
2024-05-09T07:13:50.672Z,100811.43
2024-05-09T07:18:58.404Z,100810.67
2024-05-09T07:24:15.674Z,100814.09
2024-05-09T07:29:18.722Z,100815.38
2024-05-09T07:34:21.942Z,100816.06
2024-05-09T07:39:24.930Z,100814.66
2024-05-09T07:44:39.043Z,100808.64
2024-05-09T07:51:32.270Z,100809.62
2024-05-09T07:55:07.549Z,100800.34
2024-05-09T08:00:11.926Z,100796.09
2024-05-09T08:05:17.377Z,100790.98
2024-05-09T08:10:24.530Z,100795.09
2024-05-09T08:15:32.916Z,100790.45
2024-05-09T08:20:39.296Z,100792.02
2024-05-09T08:25:47.600Z,100794.94
2024-05-09T08:30:54.144Z,100788.63
2024-05-09T08:35:59.472Z,100778.89
2024-05-09T08:41:03.695Z,100772.57
2024-05-09T08:46:06.924Z,100780.20
2024-05-09T08:51:09.190Z,100779.44
2024-05-09T08:56:37.907Z,100775.42
2024-05-09T09:01:42.833Z,100772.91
2024-05-09T09:07:06.673Z,100770.92
2024-05-09T09:12:21.220Z,100768.52
2024-05-09T09:17:23.684Z,100769.77
2024-05-09T09:22:35.750Z,100765.24
2024-05-09T09:27:43.362Z,100761.27
2024-05-09T09:32:51.679Z,100760.02
2024-05-09T09:38:02.132Z,100762.20
2024-05-09T09:43:35.484Z,100764.07
2024-05-09T09:48:59.416Z,100764.73
2024-05-09T09:54:07.010Z,100760.00
2024-05-09T09:59:27.825Z,100766.10
2024-05-09T10:04:31.156Z,100759.84
2024-05-09T10:09:34.566Z,100759.54
2024-05-09T10:15:07.137Z,100759.09
2024-05-09T10:20:21.984Z,100762.47
2024-05-09T10:25:36.804Z,100752.60
2024-05-09T10:30:43.315Z,100747.20
2024-05-09T10:35:55.191Z,100743.61
2024-05-09T10:41:03.034Z,100739.00
2024-05-09T10:46:28.345Z,100729.72
2024-05-09T10:51:55.468Z,100723.41
2024-05-09T10:56:59.584Z,100714.32
2024-05-09T11:02:11.783Z,100714.65
2024-05-09T11:07:20.921Z,100714.23
2024-05-09T11:12:45.346Z,100705.80
2024-05-09T11:17:47.797Z,100696.83
2024-05-09T11:22:55.927Z,100692.56
2024-05-09T11:28:02.421Z,100683.74
2024-05-09T11:33:05.240Z,100681.92
2024-05-09T11:38:07.324Z,100675.15
2024-05-09T11:43:12.313Z,100677.52
2024-05-09T11:48:15.825Z,100672.39
2024-05-09T11:53:18.486Z,100665.64
2024-05-09T11:58:29.362Z,100663.77
2024-05-09T12:03:32.751Z,100653.27
2024-05-09T12:08:36.477Z,100646.19
2024-05-09T12:13:43.130Z,100642.73
2024-05-09T12:18:47.981Z,100640.45
2024-05-09T12:23:50.508Z,100637.73
2024-05-09T12:28:53.245Z,100629.27
2024-05-09T12:33:59.847Z,100627.02
2024-05-09T12:39:05.492Z,100620.91
2024-05-09T12:44:10.986Z,100623.27
2024-05-09T12:49:20.121Z,100613.34
2024-05-09T12:54:41.460Z,100615.58
2024-05-09T12:59:44.321Z,100615.11
2024-05-09T13:04:49.104Z,100604.98
2024-05-09T13:09:51.413Z,100602.05
2024-05-09T13:14:53.804Z,100594.19
2024-05-09T13:19:59.100Z,100589.01
2024-05-09T13:25:01.566Z,100580.56
2024-05-09T13:30:06.326Z,100575.85
2024-05-09T13:35:10.427Z,100572.80
2024-05-09T13:40:14.457Z,100570.66
2024-05-09T13:45:17.777Z,100564.58
2024-05-09T13:50:30.482Z,100561.02
2024-05-09T13:55:38.136Z,100554.26
2024-05-09T14:00:58.730Z,100542.93
2024-05-09T14:06:01.902Z,100535.77
2024-05-09T14:11:24.853Z,100534.30
2024-05-09T14:16:29.438Z,100533.07
2024-05-09T14:21:31.817Z,100529.10
2024-05-09T14:26:37.442Z,100520.74
2024-05-09T14:31:40.199Z,100519.33
2024-05-09T14:36:43.776Z,100509.94
2024-05-09T14:41:46.683Z,100502.60
2024-05-09T14:46:49.495Z,100494.04
2024-05-09T14:51:51.907Z,100492.72
2024-05-09T14:56:54.655Z,100485.83
2024-05-09T15:01:57.744Z,100482.77
2024-05-09T15:07:01.904Z,100480.48
2024-05-09T15:12:09.104Z,100473.12
2024-05-09T15:17:12.676Z,100467.98
2024-05-09T15:22:21.294Z,100465.66
2024-05-09T15:27:24.886Z,100468.25
2024-05-09T15:32:44.403Z,100467.74
2024-05-09T15:37:48.363Z,100458.33
2024-05-09T15:42:51.530Z,100452.56
2024-05-09T15:47:56.859Z,100443.35
2024-05-09T15:53:09.102Z,100435.28
2024-05-09T15:58:22.588Z,100437.52
2024-05-09T16:03:32.302Z,100436.40
2024-05-09T16:08:36.542Z,100434.35
2024-05-09T16:13:39.114Z,100429.05
2024-05-09T16:18:44.560Z,100423.54
2024-05-09T16:23:49.165Z,100419.83
2024-05-09T16:28:54.178Z,100419.57
2024-05-09T16:33:59.899Z,100417.48
2024-05-09T16:39:03.797Z,100416.95
2024-05-09T16:44:18.526Z,100415.41
2024-05-09T16:49:24.078Z,100423.00
2024-05-09T16:54:30.061Z,100420.02
2024-05-09T16:59:32.412Z,100417.64
2024-05-09T17:04:45.093Z,100418.63
2024-05-09T17:09:48.279Z,100414.77
2024-05-09T17:14:50.838Z,100408.84
2024-05-09T17:19:53.161Z,100412.42
2024-05-09T17:25:37.953Z,100410.70
2024-05-09T17:31:06.894Z,100418.66
2024-05-09T17:36:12.735Z,100414.93
2024-05-09T17:41:15.014Z,100419.75
2024-05-09T17:46:20.897Z,100419.17
2024-05-09T17:51:35.308Z,100418.23
2024-05-09T17:56:37.777Z,100420.45
2024-05-09T18:01:44.657Z,100420.90
2024-05-09T18:06:51.217Z,100422.81
2024-05-09T18:11:57.219Z,100419.83
2024-05-09T18:17:00.827Z,100422.30
2024-05-09T18:22:07.570Z,100419.54
2024-05-09T18:27:11.563Z,100419.23
2024-05-09T18:32:17.747Z,100418.45
2024-05-09T18:37:21.107Z,100422.14
2024-05-09T18:42:24.166Z,100426.77
2024-05-09T18:47:28.223Z,100431.83
2024-05-09T18:52:41.275Z,100438.40
2024-05-09T18:57:53.897Z,100445.27
2024-05-09T19:02:58.274Z,100449.65
2024-05-09T19:08:05.907Z,100454.89
2024-05-09T19:13:15.021Z,100457.17
2024-05-09T19:18:18.618Z,100461.77
2024-05-09T19:23:22.213Z,100459.33
2024-05-09T19:28:25.746Z,100460.95
2024-05-09T19:33:32.262Z,100457.57
2024-05-09T19:38:39.737Z,100458.77
2024-05-09T19:43:43.348Z,100458.47
2024-05-09T19:48:46.777Z,100459.63
2024-05-09T19:53:50.267Z,100462.77
2024-05-09T19:59:04.805Z,100468.95
2024-05-09T20:04:07.502Z,100470.32
2024-05-09T20:09:24.934Z,100466.77
2024-05-09T20:14:28.547Z,100473.01
2024-05-09T20:19:30.776Z,100472.47
2024-05-09T20:24:38.871Z,100476.83
2024-05-09T20:29:41.391Z,100484.86
2024-05-09T20:34:49.751Z,100481.24
2024-05-09T20:39:51.885Z,100483.19
2024-05-09T20:44:54.782Z,100484.20
2024-05-09T20:50:02.181Z,100486.57
2024-05-09T20:55:13.685Z,100485.08
2024-05-09T21:00:25.936Z,100484.48
2024-05-09T21:05:37.077Z,100483.40
2024-05-09T21:10:48.598Z,100484.95
2024-05-09T21:15:51.923Z,100484.56
2024-05-09T21:20:54.480Z,100486.09
2024-05-09T21:25:56.747Z,100482.62
2024-05-09T21:30:59.798Z,100483.75
2024-05-09T21:36:02.787Z,100483.20
2024-05-09T21:41:07.343Z,100485.60
2024-05-09T21:46:09.937Z,100480.39
2024-05-09T21:51:26.842Z,100479.90
2024-05-09T21:56:29.394Z,100478.29
2024-05-09T22:01:33.696Z,100482.65
2024-05-09T22:06:44.595Z,100478.86
2024-05-09T22:11:54.437Z,100476.25
2024-05-09T22:16:56.832Z,100477.79
2024-05-09T22:22:11.223Z,100474.77
2024-05-09T22:27:21.973Z,100476.13
2024-05-09T22:32:33.705Z,100477.82
2024-05-09T22:37:50.556Z,100479.61
2024-05-09T22:42:58.364Z,100479.31
2024-05-09T22:48:01.204Z,100475.77
2024-05-09T22:53:07.860Z,100474.88
2024-05-09T22:58:18.745Z,100473.95
2024-05-09T23:03:25.821Z,100465.48
2024-05-09T23:08:29.742Z,100460.09
2024-05-09T23:13:33.580Z,100456.40
2024-05-09T23:18:39.907Z,100450.09
2024-05-09T23:23:48.754Z,100450.49
2024-05-09T23:28:51.458Z,100446.58
2024-05-09T23:34:14.432Z,100441.04
2024-05-09T23:39:21.957Z,100440.41
2024-05-09T23:44:27.627Z,100437.51
2024-05-09T23:49:29.979Z,100434.06
2024-05-09T23:54:34.797Z,100431.19
2024-05-09T23:59:36.845Z,100431.42
